createdAt,value
2023-03-24T00:01:20.822Z,78.82
2023-03-24T00:03:52.300Z,78.68
2023-03-24T00:06:26.601Z,78.66
2023-03-24T00:09:00.454Z,78.83
2023-03-24T00:11:34.998Z,78.95
2023-03-24T00:14:07.223Z,79.62
2023-03-24T00:16:42.492Z,79.95
2023-03-24T00:19:15.209Z,80.28
2023-03-24T00:21:47.172Z,79.91
2023-03-24T00:24:20.115Z,80.19
2023-03-24T00:26:52.582Z,80.01
2023-03-24T00:29:25.599Z,80.10
2023-03-24T00:31:57.492Z,80.08
2023-03-24T00:34:29.496Z,80.11
2023-03-24T00:37:01.437Z,79.93
2023-03-24T00:39:33.683Z,80.01
2023-03-24T00:42:05.625Z,80.77
2023-03-24T00:44:38.878Z,81.10
2023-03-24T00:47:11.165Z,80.70
2023-03-24T00:49:43.051Z,80.54
2023-03-24T00:52:20.557Z,80.59
2023-03-24T00:54:58.000Z,80.38
2023-03-24T00:57:34.716Z,80.90
2023-03-24T01:00:14.293Z,80.56
2023-03-24T01:02:47.509Z,80.42
2023-03-24T01:05:20.998Z,80.25
2023-03-24T01:07:56.865Z,80.11
2023-03-24T01:10:29.212Z,80.21
2023-03-24T01:13:02.826Z,80.22
2023-03-24T01:15:36.561Z,80.00
2023-03-24T01:18:09.731Z,79.94
2023-03-24T01:20:45.653Z,80.06
2023-03-24T01:23:21.425Z,80.37
2023-03-24T01:25:54.892Z,80.32
2023-03-24T01:28:27.485Z,80.33
2023-03-24T01:30:58.040Z,80.20
2023-03-24T01:33:29.941Z,80.10
2023-03-24T01:36:02.552Z,80.20
2023-03-24T01:38:35.035Z,80.18
2023-03-24T01:41:08.426Z,80.07
2023-03-24T01:43:40.447Z,80.13
2023-03-24T01:46:19.175Z,80.15
2023-03-24T01:48:55.592Z,80.32
2023-03-24T01:51:31.535Z,80.25
2023-03-24T01:54:06.990Z,80.37
2023-03-24T01:56:42.369Z,80.33
2023-03-24T01:59:18.492Z,80.59
2023-03-24T02:02:13.799Z,80.43
2023-03-24T02:04:54.049Z,80.65
2023-03-24T02:07:34.260Z,81.11
2023-03-24T02:10:10.269Z,81.13
2023-03-24T02:12:42.889Z,81.03
2023-03-24T02:15:14.670Z,81.04
2023-03-24T02:18:08.013Z,81.17
2023-03-24T02:21:02.687Z,81.13
2023-03-24T02:24:07.964Z,81.54
2023-03-24T02:27:00.291Z,81.66
2023-03-24T02:30:10.967Z,81.79
2023-03-24T02:33:15.466Z,82.15
2023-03-24T02:36:17.210Z,82.10
2023-03-24T02:39:30.973Z,82.29
2023-03-24T02:42:19.161Z,83.38
2023-03-24T02:44:57.850Z,84.33
2023-03-24T02:47:43.486Z,84.20
2023-03-24T02:50:24.656Z,83.61
2023-03-24T02:53:09.109Z,84.25
2023-03-24T02:55:48.762Z,84.51
2023-03-24T02:58:29.610Z,85.08
2023-03-24T03:01:08.150Z,85.15
2023-03-24T03:04:10.195Z,85.03
2023-03-24T03:06:47.824Z,84.37
2023-03-24T03:09:23.124Z,84.70
2023-03-24T03:11:58.764Z,84.80
2023-03-24T03:14:37.767Z,85.00
2023-03-24T03:17:14.523Z,84.84
2023-03-24T03:19:52.591Z,84.31
2023-03-24T03:22:28.433Z,83.95
2023-03-24T03:25:05.391Z,84.29
2023-03-24T03:27:39.854Z,84.23
2023-03-24T03:30:18.423Z,84.24
2023-03-24T03:32:55.353Z,84.02
2023-03-24T03:35:33.476Z,83.93
2023-03-24T03:38:14.769Z,84.25
2023-03-24T03:40:54.307Z,84.29
2023-03-24T03:43:29.133Z,84.05
2023-03-24T03:46:02.206Z,84.26
2023-03-24T03:48:39.465Z,84.27
2023-03-24T03:51:14.288Z,84.26
2023-03-24T03:53:55.560Z,84.78
2023-03-24T03:56:33.349Z,85.35
2023-03-24T03:59:28.900Z,86.35
2023-03-24T04:02:03.441Z,86.62
2023-03-24T04:05:05.698Z,86.95
2023-03-24T04:08:16.953Z,87.24
2023-03-24T04:11:33.363Z,86.73
2023-03-24T04:14:40.136Z,86.62
2023-03-24T04:17:57.575Z,87.48
2023-03-24T04:20:49.849Z,87.98
2023-03-24T04:23:32.409Z,87.33
2023-03-24T04:26:15.677Z,87.33
2023-03-24T04:28:58.172Z,86.68
2023-03-24T04:31:35.135Z,86.60
2023-03-24T04:34:17.070Z,86.45
2023-03-24T04:36:54.356Z,86.86
2023-03-24T04:39:31.953Z,86.94
2023-03-24T04:42:11.062Z,86.36
2023-03-24T04:44:43.432Z,86.12
2023-03-24T04:47:49.787Z,85.94
2023-03-24T04:50:37.951Z,85.93
2023-03-24T04:53:12.941Z,86.12
2023-03-24T04:56:06.556Z,85.99
2023-03-24T04:59:01.194Z,85.56
2023-03-24T05:01:37.343Z,85.51
2023-03-24T05:04:29.665Z,85.31
2023-03-24T05:07:05.205Z,85.40
2023-03-24T05:09:35.582Z,85.08
2023-03-24T05:12:08.130Z,85.32
2023-03-24T05:14:59.922Z,85.32
2023-03-24T05:17:31.855Z,85.12
2023-03-24T05:20:06.861Z,85.11
2023-03-24T05:22:38.905Z,85.00
2023-03-24T05:25:12.000Z,84.99
2023-03-24T05:27:44.290Z,84.78
2023-03-24T05:30:26.071Z,84.67
2023-03-24T05:33:04.112Z,84.75
2023-03-24T05:35:36.277Z,84.67
2023-03-24T05:38:08.237Z,84.52
2023-03-24T05:40:41.259Z,84.56
2023-03-24T05:43:17.478Z,84.42
2023-03-24T05:45:57.464Z,84.25
2023-03-24T05:48:34.443Z,84.13
2023-03-24T05:51:17.114Z,84.18
2023-03-24T05:53:49.280Z,84.32
2023-03-24T05:56:23.768Z,84.29
2023-03-24T05:59:06.586Z,84.38
2023-03-24T06:02:11.095Z,84.50
2023-03-24T06:04:55.771Z,84.45
2023-03-24T06:07:30.769Z,84.35
2023-03-24T06:10:04.571Z,84.57
2023-03-24T06:12:44.045Z,84.75
2023-03-24T06:15:17.580Z,84.79
2023-03-24T06:17:54.813Z,85.41
2023-03-24T06:20:34.349Z,85.62
2023-03-24T06:23:16.708Z,85.76
2023-03-24T06:26:01.430Z,86.03
2023-03-24T06:28:34.934Z,86.05
2023-03-24T06:31:15.113Z,86.12
2023-03-24T06:33:48.148Z,86.40
2023-03-24T06:36:23.500Z,86.47
2023-03-24T06:38:56.351Z,86.85
2023-03-24T06:41:29.134Z,87.24
2023-03-24T06:44:04.052Z,87.70
2023-03-24T06:46:36.933Z,88.28
2023-03-24T06:49:09.302Z,89.23
2023-03-24T06:51:41.453Z,89.59
2023-03-24T06:54:13.633Z,90.41
2023-03-24T06:56:45.799Z,90.56
2023-03-24T06:59:18.212Z,90.57
2023-03-24T07:01:50.884Z,90.76
2023-03-24T07:04:36.499Z,91.62
2023-03-24T07:10:19.441Z,92.36
2023-03-24T07:12:51.559Z,92.68
2023-03-24T07:15:23.355Z,92.93
2023-03-24T07:17:56.056Z,92.96
2023-03-24T07:20:48.576Z,92.56
2023-03-24T07:23:22.523Z,92.69
2023-03-24T07:25:55.079Z,91.94
2023-03-24T07:28:45.639Z,91.91
2023-03-24T07:31:16.934Z,91.65
2023-03-24T07:33:49.731Z,91.52
2023-03-24T07:36:22.810Z,91.40
2023-03-24T07:38:54.885Z,91.36
2023-03-24T07:41:30.382Z,91.28
2023-03-24T07:44:05.185Z,91.04
2023-03-24T07:46:39.917Z,90.98
2023-03-24T07:49:18.984Z,90.96
2023-03-24T07:51:55.875Z,90.82
2023-03-24T07:54:34.270Z,90.95
2023-03-24T07:57:08.606Z,90.86
2023-03-24T07:59:42.911Z,90.73
2023-03-24T08:02:24.144Z,90.57
2023-03-24T08:05:19.431Z,90.45
2023-03-24T08:08:14.642Z,90.42
2023-03-24T08:10:47.513Z,90.06
2023-03-24T08:13:19.936Z,89.91
2023-03-24T08:15:53.266Z,89.88
2023-03-24T08:18:26.491Z,89.42
2023-03-24T08:21:01.616Z,88.95
2023-03-24T08:23:33.849Z,89.15
2023-03-24T08:26:07.300Z,88.35
2023-03-24T08:28:39.566Z,88.03
2023-03-24T08:31:13.247Z,87.71
2023-03-24T08:33:45.459Z,87.17
2023-03-24T08:36:17.640Z,86.91
2023-03-24T08:38:51.857Z,86.33
2023-03-24T08:41:34.717Z,86.19
2023-03-24T08:44:11.887Z,85.70
2023-03-24T08:46:44.023Z,85.74
2023-03-24T08:49:16.076Z,85.70
2023-03-24T08:51:48.412Z,85.44
2023-03-24T08:54:23.713Z,84.96
2023-03-24T08:56:55.873Z,84.62
2023-03-24T08:59:28.119Z,84.43
2023-03-24T09:02:00.351Z,83.55
2023-03-24T09:04:32.462Z,82.89
2023-03-24T09:07:04.658Z,82.79
2023-03-24T09:09:36.982Z,82.48
2023-03-24T09:12:09.762Z,81.43
2023-03-24T09:14:42.072Z,81.53
2023-03-24T09:17:14.638Z,81.16
2023-03-24T09:19:47.409Z,80.59
2023-03-24T09:22:17.724Z,80.07
2023-03-24T09:24:50.512Z,79.71
2023-03-24T09:27:23.493Z,78.93
2023-03-24T09:29:55.577Z,79.12
2023-03-24T09:32:28.055Z,78.38
2023-03-24T09:35:00.651Z,77.98
2023-03-24T09:37:33.490Z,77.47
2023-03-24T09:40:08.904Z,76.84
2023-03-24T09:42:43.556Z,76.21
2023-03-24T09:45:21.814Z,75.27
2023-03-24T09:47:59.037Z,74.82
2023-03-24T09:50:34.951Z,74.79
2023-03-24T09:53:16.632Z,74.21
2023-03-24T09:55:49.947Z,74.03
2023-03-24T09:58:25.017Z,73.40
2023-03-24T10:00:57.738Z,73.42
2023-03-24T10:03:30.179Z,73.26
2023-03-24T10:06:08.044Z,73.25
2023-03-24T10:08:44.849Z,73.23
2023-03-24T10:11:24.818Z,72.97
2023-03-24T10:14:11.899Z,72.84
2023-03-24T10:16:52.073Z,73.06
2023-03-24T10:19:36.471Z,72.98
2023-03-24T10:22:17.428Z,73.01
2023-03-24T10:24:57.466Z,73.22
2023-03-24T10:27:34.697Z,74.05
2023-03-24T10:30:16.884Z,74.51
2023-03-24T10:32:49.224Z,74.79
2023-03-24T10:35:25.617Z,74.48
2023-03-24T10:38:00.382Z,74.83
2023-03-24T10:40:33.939Z,75.20
2023-03-24T10:43:09.655Z,75.23
2023-03-24T10:45:48.513Z,75.67
2023-03-24T10:48:44.854Z,75.59
2023-03-24T10:51:22.600Z,75.45
2023-03-24T10:54:13.364Z,75.48
2023-03-24T10:56:47.946Z,75.51
2023-03-24T10:59:27.501Z,75.38
2023-03-24T11:02:02.152Z,74.78
2023-03-24T11:04:34.604Z,74.50
2023-03-24T11:07:14.865Z,74.22
2023-03-24T11:09:48.611Z,74.67
2023-03-24T11:12:26.269Z,74.57
2023-03-24T11:15:21.191Z,74.66
2023-03-24T11:17:59.253Z,74.14
2023-03-24T11:20:35.011Z,74.05
2023-03-24T11:23:12.357Z,74.34
2023-03-24T11:25:47.510Z,73.96
2023-03-24T11:28:22.469Z,74.11
2023-03-24T11:30:56.171Z,74.24
2023-03-24T11:33:35.635Z,74.11
2023-03-24T11:36:45.302Z,73.80
2023-03-24T11:39:22.104Z,74.07
2023-03-24T11:42:15.562Z,74.26
2023-03-24T11:44:50.737Z,74.60
2023-03-24T11:47:30.348Z,74.83
2023-03-24T11:50:18.949Z,74.76
2023-03-24T11:52:55.214Z,74.17
2023-03-24T11:55:36.944Z,74.03
2023-03-24T11:58:17.704Z,73.38
2023-03-24T12:00:54.376Z,73.09
2023-03-24T12:03:49.853Z,72.14
2023-03-24T12:06:36.172Z,71.90
2023-03-24T12:09:17.500Z,71.23
2023-03-24T12:12:08.334Z,70.56
2023-03-24T12:14:51.094Z,70.17
2023-03-24T12:17:28.067Z,70.13
2023-03-24T12:20:15.873Z,70.34
2023-03-24T12:22:57.391Z,70.41
2023-03-24T12:25:58.095Z,70.52
2023-03-24T12:28:48.579Z,70.83
2023-03-24T12:31:41.869Z,70.72
2023-03-24T12:34:33.697Z,70.50
2023-03-24T12:37:11.147Z,70.61
2023-03-24T12:39:50.530Z,70.62
2023-03-24T12:42:24.729Z,69.56
2023-03-24T12:45:26.765Z,69.30
2023-03-24T12:48:13.509Z,68.69
2023-03-24T12:50:59.929Z,68.14
2023-03-24T12:53:43.809Z,67.49
2023-03-24T12:56:20.107Z,66.76
2023-03-24T12:58:57.535Z,66.55
2023-03-24T13:01:35.574Z,65.87
2023-03-24T13:04:12.983Z,65.57
2023-03-24T13:06:49.953Z,64.99
2023-03-24T13:09:35.833Z,64.76
2023-03-24T13:12:21.850Z,64.33
2023-03-24T13:15:01.198Z,64.69
2023-03-24T13:17:39.617Z,64.39
2023-03-24T13:20:22.003Z,64.69
2023-03-24T13:22:55.769Z,64.31
2023-03-24T13:25:38.269Z,63.54
2023-03-24T13:28:18.701Z,63.41
2023-03-24T13:30:52.038Z,63.23
2023-03-24T13:33:27.150Z,62.73
2023-03-24T13:36:27.530Z,62.45
2023-03-24T13:39:04.027Z,62.68
2023-03-24T13:41:39.696Z,62.64
2023-03-24T13:44:21.496Z,62.18
2023-03-24T13:47:15.158Z,62.04
2023-03-24T13:49:56.806Z,61.51
2023-03-24T13:52:36.402Z,60.65
2023-03-24T13:55:15.454Z,60.99
2023-03-24T13:58:01.575Z,60.99
2023-03-24T14:00:34.858Z,61.19
2023-03-24T14:03:32.256Z,61.49
2023-03-24T14:06:07.605Z,61.34
2023-03-24T14:08:56.115Z,61.06
2023-03-24T14:11:49.941Z,60.76
2023-03-24T14:14:25.464Z,60.42
2023-03-24T14:17:15.780Z,60.40
2023-03-24T14:20:15.181Z,60.37
2023-03-24T14:22:49.811Z,59.44
2023-03-24T14:25:27.645Z,58.99
2023-03-24T14:28:16.362Z,59.89
2023-03-24T14:31:03.194Z,60.08
2023-03-24T14:33:35.886Z,60.62
2023-03-24T14:36:12.177Z,60.74
2023-03-24T14:38:45.900Z,60.94
2023-03-24T14:41:28.675Z,60.95
2023-03-24T14:44:02.072Z,61.16
2023-03-24T14:46:40.160Z,61.16
2023-03-24T14:49:24.453Z,61.47
2023-03-24T14:52:02.983Z,61.60
2023-03-24T14:54:39.625Z,61.81
2023-03-24T14:57:17.609Z,61.95
2023-03-24T14:59:56.604Z,61.88
2023-03-24T15:02:33.933Z,61.92
2023-03-24T15:05:26.117Z,61.98
2023-03-24T15:08:13.702Z,62.17
2023-03-24T15:10:50.236Z,62.21
2023-03-24T15:13:38.633Z,62.44
2023-03-24T15:16:21.750Z,62.58
2023-03-24T15:21:33.994Z,67.05
2023-03-24T15:24:25.227Z,69.44
2023-03-24T15:27:15.149Z,73.34
2023-03-24T15:29:47.610Z,76.51
2023-03-24T15:32:22.187Z,79.44
2023-03-24T15:34:59.195Z,81.76
2023-03-24T15:37:39.234Z,82.79
2023-03-24T15:40:40.783Z,83.53
2023-03-24T15:43:20.828Z,84.02
2023-03-24T15:46:08.596Z,83.66
2023-03-24T15:48:42.010Z,82.51
2023-03-24T15:51:15.189Z,82.21
2023-03-24T15:53:51.009Z,81.47
2023-03-24T15:56:29.129Z,81.23
2023-03-24T15:59:15.468Z,81.19
2023-03-24T16:01:51.130Z,80.84
2023-03-24T16:04:23.495Z,81.42
2023-03-24T16:06:57.835Z,81.56
2023-03-24T16:09:58.307Z,81.26
2023-03-24T16:12:31.071Z,80.63
2023-03-24T16:15:16.242Z,79.98
2023-03-24T16:17:49.844Z,79.03
2023-03-24T16:20:23.399Z,77.80
2023-03-24T16:22:57.056Z,70.10
2023-03-24T16:25:30.874Z,61.02
2023-03-24T16:28:03.312Z,59.22
2023-03-24T16:30:41.119Z,60.29
2023-03-24T16:33:15.044Z,62.83
2023-03-24T16:35:47.423Z,64.56
2023-03-24T16:38:19.596Z,66.54
2023-03-24T16:40:54.443Z,68.05
2023-03-24T16:43:33.210Z,69.46
2023-03-24T16:46:06.165Z,70.75
2023-03-24T16:48:38.122Z,71.79
2023-03-24T16:51:15.836Z,72.69
2023-03-24T16:53:49.222Z,73.50
2023-03-24T16:56:22.706Z,74.69
2023-03-24T16:58:56.304Z,75.56
2023-03-24T17:01:33.998Z,76.22
2023-03-24T17:04:09.538Z,77.09
2023-03-24T17:06:43.523Z,78.30
2023-03-24T17:09:17.549Z,79.95
2023-03-24T17:11:54.577Z,81.18
2023-03-24T17:14:27.714Z,81.54
2023-03-24T17:17:05.376Z,83.04
2023-03-24T17:19:47.828Z,85.54
2023-03-24T17:22:21.992Z,86.02
2023-03-24T17:25:02.640Z,87.44
2023-03-24T17:27:47.138Z,86.87
2023-03-24T17:30:24.826Z,87.60
2023-03-24T17:32:58.332Z,87.36
2023-03-24T17:35:33.251Z,86.96
2023-03-24T17:38:06.839Z,85.93
2023-03-24T17:40:38.814Z,86.06
2023-03-24T17:43:10.652Z,86.28
2023-03-24T17:45:43.545Z,85.93
2023-03-24T17:48:15.680Z,85.72
2023-03-24T17:50:48.097Z,85.93
2023-03-24T17:53:28.651Z,85.92
2023-03-24T17:56:05.583Z,86.91
2023-03-24T17:58:38.825Z,86.75
2023-03-24T18:01:14.840Z,86.95
2023-03-24T18:03:49.946Z,87.23
2023-03-24T18:06:22.490Z,86.80
2023-03-24T18:08:54.681Z,87.09
2023-03-24T18:11:26.819Z,87.03
2023-03-24T18:14:00.184Z,86.42
2023-03-24T18:16:35.488Z,86.18
2023-03-24T18:19:08.371Z,85.79
2023-03-24T18:21:41.138Z,86.50
2023-03-24T18:24:14.626Z,86.84
2023-03-24T18:26:48.143Z,87.45
2023-03-24T18:29:23.921Z,87.81
2023-03-24T18:31:55.835Z,88.03
2023-03-24T18:34:28.133Z,87.83
2023-03-24T18:37:01.371Z,88.11
2023-03-24T18:39:34.303Z,87.83
2023-03-24T18:42:06.876Z,88.29
2023-03-24T18:44:39.132Z,88.54
2023-03-24T18:47:11.916Z,88.42
2023-03-24T18:49:42.148Z,88.42
2023-03-24T18:52:17.944Z,87.61
2023-03-24T18:54:50.476Z,87.29
2023-03-24T18:57:22.485Z,87.32
2023-03-24T18:59:54.506Z,86.95
2023-03-24T19:02:26.645Z,86.73
2023-03-24T19:04:57.513Z,86.48
2023-03-24T19:07:31.462Z,87.04
2023-03-24T19:10:04.685Z,87.54
2023-03-24T19:12:37.050Z,87.57
2023-03-24T19:15:10.172Z,87.81
2023-03-24T19:17:42.137Z,88.00
2023-03-24T19:20:15.309Z,88.23
2023-03-24T19:22:47.320Z,87.81
2023-03-24T19:25:19.475Z,87.98
2023-03-24T19:27:51.647Z,88.08
2023-03-24T19:30:23.933Z,87.16
2023-03-24T19:32:56.777Z,86.59
2023-03-24T19:35:28.946Z,86.27
2023-03-24T19:38:03.108Z,86.13
2023-03-24T19:40:41.442Z,85.98
2023-03-24T19:43:13.525Z,85.58
2023-03-24T19:45:49.683Z,85.75
2023-03-24T19:48:22.727Z,85.71
2023-03-24T19:50:57.382Z,85.87
2023-03-24T19:53:29.641Z,86.14
2023-03-24T19:56:03.242Z,86.16
2023-03-24T19:58:35.597Z,87.02
2023-03-24T20:01:07.890Z,87.15
2023-03-24T20:03:42.834Z,87.13
2023-03-24T20:06:15.862Z,87.02
2023-03-24T20:08:48.704Z,87.28
2023-03-24T20:11:23.279Z,87.53
2023-03-24T20:13:55.284Z,87.16
2023-03-24T20:16:27.407Z,87.12
2023-03-24T20:18:59.826Z,87.30
2023-03-24T20:21:33.463Z,87.44
2023-03-24T20:24:05.713Z,87.57
2023-03-24T20:26:37.762Z,87.56
2023-03-24T20:29:10.145Z,87.34
2023-03-24T20:31:43.076Z,87.55
2023-03-24T20:34:16.417Z,88.00
2023-03-24T20:36:49.451Z,88.11
2023-03-24T20:39:21.396Z,88.22
2023-03-24T20:41:53.274Z,88.23
2023-03-24T20:44:25.534Z,88.57
2023-03-24T20:47:00.777Z,88.49
2023-03-24T20:49:32.896Z,88.66
2023-03-24T20:52:04.837Z,88.71
2023-03-24T20:54:36.708Z,89.07
2023-03-24T20:57:09.553Z,89.48
2023-03-24T20:59:42.197Z,89.56
2023-03-24T21:02:18.904Z,90.26
2023-03-24T21:04:50.887Z,90.52
2023-03-24T21:07:23.445Z,90.40
2023-03-24T21:09:55.346Z,91.25
2023-03-24T21:12:27.297Z,91.54
2023-03-24T21:14:59.409Z,91.55
2023-03-24T21:17:33.013Z,91.71
2023-03-24T21:20:10.653Z,91.50
2023-03-24T21:22:53.394Z,91.20
2023-03-24T21:25:27.843Z,91.30
2023-03-24T21:28:01.855Z,91.46
2023-03-24T21:30:33.903Z,91.44
2023-03-24T21:33:06.465Z,91.61
2023-03-24T21:35:38.776Z,91.76
2023-03-24T21:38:10.695Z,92.68
2023-03-24T21:40:42.845Z,93.35
2023-03-24T21:43:16.793Z,93.47
2023-03-24T21:45:53.790Z,93.30
2023-03-24T21:48:27.714Z,93.49
2023-03-24T21:51:00.263Z,93.57
2023-03-24T21:53:36.266Z,93.51
2023-03-24T21:56:09.313Z,93.19
2023-03-24T21:58:41.651Z,93.47
2023-03-24T22:01:14.652Z,93.78
2023-03-24T22:03:46.874Z,93.66
2023-03-24T22:06:21.407Z,93.55
2023-03-24T22:08:58.726Z,93.62
2023-03-24T22:11:30.751Z,94.08
2023-03-24T22:14:02.651Z,94.16
2023-03-24T22:16:34.519Z,94.79
2023-03-24T22:19:06.588Z,94.76
2023-03-24T22:21:39.681Z,94.93
2023-03-24T22:24:12.850Z,95.07
2023-03-24T22:26:47.871Z,95.21
2023-03-24T22:29:20.109Z,95.31
2023-03-24T22:31:52.062Z,95.08
2023-03-24T22:34:24.166Z,95.14
2023-03-24T22:36:56.102Z,95.39
2023-03-24T22:39:27.946Z,95.55
2023-03-24T22:42:01.036Z,95.36
2023-03-24T22:44:33.836Z,95.23
2023-03-24T22:47:04.857Z,95.39
2023-03-24T22:49:36.952Z,95.53
2023-03-24T22:52:09.258Z,95.38
2023-03-24T22:54:41.524Z,95.86
2023-03-24T22:57:13.486Z,96.45
2023-03-24T22:59:45.438Z,96.81
2023-03-24T23:02:17.684Z,96.87
2023-03-24T23:04:49.634Z,96.83
2023-03-24T23:07:22.580Z,96.89
2023-03-24T23:09:59.339Z,96.46
2023-03-24T23:12:31.584Z,96.52
2023-03-24T23:15:03.761Z,96.55
2023-03-24T23:17:36.044Z,96.44
2023-03-24T23:20:11.943Z,96.31
2023-03-24T23:22:44.164Z,96.08
2023-03-24T23:25:18.869Z,95.89
2023-03-24T23:27:51.202Z,96.21
2023-03-24T23:30:23.104Z,96.91
2023-03-24T23:32:57.966Z,97.42
2023-03-24T23:35:30.092Z,97.10
2023-03-24T23:38:02.611Z,96.69
2023-03-24T23:40:34.628Z,96.63
2023-03-24T23:43:06.872Z,97.09
2023-03-24T23:45:39.000Z,97.27
2023-03-24T23:48:11.955Z,97.71
2023-03-24T23:50:49.163Z,98.62
2023-03-24T23:53:20.976Z,99.20
2023-03-24T23:55:57.301Z,99.44
2023-03-24T23:58:31.273Z,98.57
